Terminal Aerodrome Forecast
Issued by NWS Milwaukee/Sullivan, WI

Home | Current Version | Previous Version | Text Only | Print | Product List | Glossary On
Versions: 1 2 3 4 5 6 7 8 9 10 11 12 13 14 15 16 17 18 19 20 21 22 23 24 25 26 27 28 29 30 31 32
000
FTUS43 KMKX 262057 AAA
TAFMKE
TAF AMD
KMKE 262057Z 2621/2724 25019G28KT P6SM FEW045 SCT250
     FM262300 24010G20KT P6SM SKC
     FM270100 24005KT P6SM SKC
     FM271500 18006KT P6SM SCT100=

USA.gov is the U.S. government's official web portal to all federal, state and local government web resources and services.